createdAt,value
2023-03-07T00:00:02.167Z,98507.20
2023-03-07T00:05:07.004Z,98505.68
2023-03-07T00:10:11.235Z,98502.77
2023-03-07T00:15:14.442Z,98493.29
2023-03-07T00:20:18.369Z,98486.20
2023-03-07T00:25:21.884Z,98486.13
2023-03-07T00:30:25.397Z,98488.80
2023-03-07T00:35:28.911Z,98486.77
2023-03-07T00:40:32.545Z,98489.61
2023-03-07T00:45:36.190Z,98487.07
2023-03-07T00:50:39.973Z,98486.88
2023-03-07T00:55:53.626Z,98485.23
2023-03-07T01:00:57.898Z,98478.17
2023-03-07T01:06:10.509Z,98475.78
2023-03-07T01:11:14.842Z,98470.39
2023-03-07T01:16:21.334Z,98468.55
2023-03-07T01:21:28.208Z,98467.73
2023-03-07T01:26:33.049Z,98468.67
2023-03-07T01:31:36.604Z,98465.34
2023-03-07T01:36:40.207Z,98462.08
2023-03-07T01:41:44.832Z,98453.11
2023-03-07T01:46:49.467Z,98454.85
2023-03-07T01:52:00.762Z,98446.80
2023-03-07T01:57:05.316Z,98446.30
2023-03-07T02:02:13.302Z,98444.06
2023-03-07T02:07:21.660Z,98438.81
2023-03-07T02:12:25.164Z,98439.63
2023-03-07T02:17:28.883Z,98438.57
2023-03-07T02:22:32.605Z,98439.48
2023-03-07T02:27:37.743Z,98436.77
2023-03-07T02:32:41.236Z,98431.40
2023-03-07T02:37:47.765Z,98426.58
2023-03-07T02:42:54.938Z,98425.98
2023-03-07T02:47:58.380Z,98421.85
2023-03-07T02:53:02.108Z,98424.30
2023-03-07T02:58:05.509Z,98416.42
2023-03-07T03:03:09.234Z,98414.70
2023-03-07T03:08:13.672Z,98409.55
2023-03-07T03:13:16.878Z,98402.73
2023-03-07T03:18:20.396Z,98402.06
2023-03-07T03:23:26.985Z,98399.82
2023-03-07T03:28:30.399Z,98395.66
2023-03-07T03:33:34.637Z,98399.35
2023-03-07T03:38:38.349Z,98390.20
2023-03-07T03:43:42.174Z,98385.87
2023-03-07T03:48:52.257Z,98386.58
2023-03-07T03:53:57.853Z,98385.58
2023-03-07T03:59:01.326Z,98376.52
2023-03-07T04:04:05.319Z,98375.54
2023-03-07T04:09:09.801Z,98367.94
2023-03-07T04:14:13.518Z,98360.83
2023-03-07T04:19:16.913Z,98364.10
2023-03-07T04:24:20.531Z,98363.66
2023-03-07T04:29:24.162Z,98361.58
2023-03-07T04:34:27.769Z,98361.48
2023-03-07T04:39:31.284Z,98359.23
2023-03-07T04:44:34.900Z,98356.66
2023-03-07T04:49:38.518Z,98350.86
2023-03-07T04:54:42.035Z,98346.82
2023-03-07T04:59:45.755Z,98342.10
2023-03-07T05:04:49.269Z,98334.42
2023-03-07T05:09:52.804Z,98328.48
2023-03-07T05:14:56.303Z,98325.89
2023-03-07T05:19:59.816Z,98324.20
2023-03-07T05:25:03.440Z,98319.27
2023-03-07T05:30:07.610Z,98310.82
2023-03-07T05:35:12.214Z,98306.98
2023-03-07T05:40:15.916Z,98302.08
2023-03-07T05:45:21.383Z,98296.21
2023-03-07T05:50:25.212Z,98297.08
2023-03-07T05:55:28.653Z,98293.91
2023-03-07T06:00:32.142Z,98291.73
2023-03-07T06:05:35.760Z,98291.50
2023-03-07T06:10:40.502Z,98295.39
2023-03-07T06:15:44.773Z,98286.34
2023-03-07T06:20:55.417Z,98284.98
2023-03-07T06:25:59.751Z,98279.38
2023-03-07T06:31:11.831Z,98274.48
2023-03-07T06:36:17.767Z,98273.35
2023-03-07T06:41:21.257Z,98271.34
2023-03-07T06:46:24.875Z,98271.58
2023-03-07T06:51:28.492Z,98268.51
2023-03-07T06:56:31.859Z,98258.41
2023-03-07T07:01:36.036Z,98262.58
2023-03-07T07:06:39.449Z,98253.73
2023-03-07T07:11:43.075Z,98253.33
2023-03-07T07:16:46.540Z,98244.30
2023-03-07T07:21:50.198Z,98237.54
2023-03-07T07:26:54.177Z,98234.11
2023-03-07T07:31:57.890Z,98227.41
2023-03-07T07:37:01.563Z,98223.84
2023-03-07T07:42:05.415Z,98224.33
2023-03-07T07:47:08.922Z,98219.26
2023-03-07T07:52:12.372Z,98212.52
2023-03-07T07:57:15.941Z,98208.31
2023-03-07T08:02:19.494Z,98201.67
2023-03-07T08:07:23.395Z,98201.36
2023-03-07T08:12:27.973Z,98191.21
2023-03-07T08:17:31.846Z,98181.73
2023-03-07T08:22:36.733Z,98170.48
2023-03-07T08:27:40.209Z,98167.06
2023-03-07T08:32:43.829Z,98153.44
2023-03-07T08:37:49.338Z,98147.71
2023-03-07T08:42:55.255Z,98142.48
2023-03-07T08:47:59.188Z,98143.20
2023-03-07T08:53:04.132Z,98142.73
2023-03-07T08:58:07.957Z,98134.91
2023-03-07T09:03:11.623Z,98129.15
2023-03-07T09:08:15.209Z,98127.87
2023-03-07T09:13:18.741Z,98125.45
2023-03-07T09:18:23.192Z,98114.95
2023-03-07T09:23:26.456Z,98101.88
2023-03-07T09:28:30.080Z,98092.41
2023-03-07T09:33:33.997Z,98086.33
2023-03-07T09:38:38.999Z,98079.34
2023-03-07T09:43:54.750Z,98074.40
2023-03-07T09:49:18.138Z,98061.61
2023-03-07T09:54:47.351Z,98046.54
2023-03-07T09:59:57.751Z,98039.29
2023-03-07T10:05:10.770Z,98030.70
2023-03-07T10:10:40.304Z,98023.46
2023-03-07T10:15:48.043Z,98013.73
2023-03-07T10:21:13.247Z,98007.80
2023-03-07T10:26:26.270Z,98004.47
2023-03-07T10:31:38.086Z,97992.69
2023-03-07T10:37:03.361Z,97985.65
2023-03-07T10:42:15.012Z,97975.37
2023-03-07T10:47:22.441Z,97967.98
2023-03-07T10:52:38.524Z,97958.75
2023-03-07T10:57:41.935Z,97951.95
2023-03-07T11:02:47.175Z,97936.52
2023-03-07T11:07:50.601Z,97920.40
2023-03-07T11:12:56.182Z,97901.36
2023-03-07T11:17:59.885Z,97899.51
2023-03-07T11:23:18.665Z,97890.05
2023-03-07T11:28:30.886Z,97877.27
2023-03-07T11:34:00.320Z,97871.70
2023-03-07T11:39:24.710Z,97871.08
2023-03-07T11:45:06.930Z,97868.86
2023-03-07T11:50:22.954Z,97857.34
2023-03-07T11:55:47.968Z,97842.23
2023-03-07T12:01:00.143Z,97832.92
2023-03-07T12:06:17.421Z,97822.00
2023-03-07T12:11:26.879Z,97815.89
2023-03-07T12:16:50.878Z,97807.35
2023-03-07T12:22:12.931Z,97796.94
2023-03-07T12:27:28.554Z,97788.36
2023-03-07T12:32:36.676Z,97782.16
2023-03-07T12:37:55.978Z,97764.46
2023-03-07T12:43:30.685Z,97756.89
2023-03-07T12:48:59.488Z,97747.52
2023-03-07T12:54:23.703Z,97741.98
2023-03-07T12:59:29.471Z,97741.14
2023-03-07T13:04:35.717Z,97738.38
2023-03-07T13:09:43.347Z,97735.58
2023-03-07T13:14:57.839Z,97729.79
2023-03-07T13:20:23.758Z,97721.83
2023-03-07T13:25:27.783Z,97721.05
2023-03-07T13:30:33.303Z,97719.01
2023-03-07T13:35:48.492Z,97708.73
2023-03-07T13:40:56.557Z,97708.74
2023-03-07T13:46:03.546Z,97696.36
2023-03-07T13:51:10.861Z,97691.59
2023-03-07T13:56:17.340Z,97685.83
2023-03-07T14:01:22.167Z,97684.23
2023-03-07T14:06:35.145Z,97670.65
2023-03-07T14:12:09.873Z,97662.91
2023-03-07T14:17:29.572Z,97651.77
2023-03-07T14:22:52.881Z,97635.64
2023-03-07T14:27:59.341Z,97634.26
2023-03-07T14:33:03.278Z,97628.42
2023-03-07T14:38:18.556Z,97622.92
2023-03-07T14:43:52.382Z,97624.32
2023-03-07T14:49:32.576Z,97623.11
2023-03-07T14:54:38.113Z,97608.62
2023-03-07T14:59:41.632Z,97609.88
2023-03-07T15:04:45.206Z,97608.61
2023-03-07T15:09:49.374Z,97604.52
2023-03-07T15:14:57.926Z,97600.81
2023-03-07T15:20:10.031Z,97602.50
2023-03-07T15:25:25.371Z,97602.19
2023-03-07T15:30:35.300Z,97598.35
2023-03-07T15:35:39.024Z,97594.20
2023-03-07T15:40:43.554Z,97591.16
2023-03-07T15:46:00.147Z,97585.59
2023-03-07T15:51:06.841Z,97581.63
2023-03-07T15:56:25.125Z,97581.63
2023-03-07T16:01:28.927Z,97583.95
2023-03-07T16:06:38.358Z,97582.59
2023-03-07T16:11:43.920Z,97583.58
2023-03-07T16:16:48.038Z,97569.94
2023-03-07T16:21:51.617Z,97562.45
2023-03-07T16:26:55.129Z,97550.20
2023-03-07T16:32:01.585Z,97542.00
2023-03-07T16:37:05.640Z,97541.95
2023-03-07T16:42:24.513Z,97539.28
2023-03-07T16:47:28.026Z,97542.30
2023-03-07T16:52:31.493Z,97546.84
2023-03-07T16:57:35.262Z,97548.69
2023-03-07T17:02:38.810Z,97551.54
2023-03-07T17:07:42.503Z,97537.95
2023-03-07T17:12:46.938Z,97526.54
2023-03-07T17:17:50.353Z,97517.30
2023-03-07T17:22:54.290Z,97506.41
2023-03-07T17:28:08.853Z,97498.46
2023-03-07T17:33:12.676Z,97492.19
2023-03-07T17:38:16.295Z,97483.56
2023-03-07T17:43:20.114Z,97474.20
2023-03-07T17:48:23.507Z,97466.45
2023-03-07T17:53:27.045Z,97457.56
2023-03-07T17:58:30.353Z,97442.21
2023-03-07T18:03:34.563Z,97426.12
2023-03-07T18:08:39.234Z,97414.87
2023-03-07T18:13:42.852Z,97409.23
2023-03-07T18:18:58.129Z,97400.80
2023-03-07T18:24:03.084Z,97386.45
2023-03-07T18:29:06.611Z,97380.84
2023-03-07T18:34:10.835Z,97374.92
2023-03-07T18:39:16.145Z,97388.83
2023-03-07T18:44:20.425Z,97475.08
2023-03-07T18:49:23.833Z,97486.27
2023-03-07T18:54:27.245Z,97489.21
2023-03-07T18:59:30.658Z,97501.34
2023-03-07T19:04:34.391Z,97495.08
2023-03-07T19:09:38.008Z,97505.17
2023-03-07T19:14:43.881Z,97514.64
2023-03-07T19:19:48.619Z,97516.80
2023-03-07T19:24:52.111Z,97517.02
2023-03-07T19:29:55.751Z,97525.76
2023-03-07T19:34:59.163Z,97524.59
2023-03-07T19:40:02.647Z,97519.89
2023-03-07T19:45:07.113Z,97508.99
2023-03-07T19:50:10.836Z,97503.41
2023-03-07T19:55:14.879Z,97467.65
2023-03-07T20:00:20.423Z,97463.36
2023-03-07T20:05:23.980Z,97464.78
2023-03-07T20:10:27.970Z,97472.59
2023-03-07T20:15:32.477Z,97478.30
2023-03-07T20:20:36.332Z,97488.72
2023-03-07T20:25:39.948Z,97496.34
2023-03-07T20:30:43.796Z,97497.91
2023-03-07T20:35:47.310Z,97505.21
2023-03-07T20:41:00.021Z,97513.92
2023-03-07T20:46:12.983Z,97512.60
2023-03-07T20:51:19.278Z,97521.49
2023-03-07T20:56:23.888Z,97525.84
2023-03-07T21:01:30.205Z,97524.42
2023-03-07T21:06:38.782Z,97529.02
2023-03-07T21:11:47.544Z,97541.91
2023-03-07T21:16:50.964Z,97544.73
2023-03-07T21:21:54.439Z,97535.80
2023-03-07T21:26:58.630Z,97547.52
2023-03-07T21:32:02.114Z,97544.93
2023-03-07T21:37:05.622Z,97540.38
2023-03-07T21:42:09.139Z,97542.11
2023-03-07T21:47:13.374Z,97545.63
2023-03-07T21:52:16.783Z,97553.03
2023-03-07T21:57:20.380Z,97549.48
2023-03-07T22:02:24.327Z,97548.10
2023-03-07T22:07:27.839Z,97551.41
2023-03-07T22:12:31.767Z,97555.01
2023-03-07T22:17:35.226Z,97559.51
2023-03-07T22:22:38.695Z,97568.38
2023-03-07T22:27:43.846Z,97566.11
2023-03-07T22:32:47.383Z,97574.35
2023-03-07T22:37:50.979Z,97565.51
2023-03-07T22:42:54.600Z,97569.34
2023-03-07T22:47:58.120Z,97568.72
2023-03-07T22:53:01.629Z,97564.25
2023-03-07T22:58:05.147Z,97572.39
2023-03-07T23:03:08.996Z,97579.27
2023-03-07T23:08:13.303Z,97574.46
2023-03-07T23:13:17.256Z,97583.08
2023-03-07T23:18:20.752Z,97585.21
2023-03-07T23:23:24.360Z,97592.99
2023-03-07T23:28:28.183Z,97592.28
2023-03-07T23:33:31.702Z,97598.48
2023-03-07T23:38:35.111Z,97599.42
2023-03-07T23:43:38.831Z,97591.67
2023-03-07T23:48:42.244Z,97596.48
2023-03-07T23:53:45.763Z,97600.08
2023-03-07T23:58:51.017Z,97598.02
